createdAt,value
2022-11-28T00:01:43.835Z,3.35
2022-11-28T00:04:13.217Z,3.36
2022-11-28T00:06:47.255Z,3.38
2022-11-28T00:09:17.137Z,3.40
2022-11-28T00:11:48.746Z,3.40
2022-11-28T00:14:18.820Z,3.39
2022-11-28T00:16:47.490Z,3.38
2022-11-28T00:19:15.931Z,3.37
2022-11-28T00:21:44.099Z,3.36
2022-11-28T00:24:12.288Z,3.34
2022-11-28T00:26:42.262Z,3.34
2022-11-28T00:29:11.482Z,3.35
2022-11-28T00:31:44.651Z,3.33
2022-11-28T00:34:15.198Z,3.32
2022-11-28T00:36:44.522Z,3.31
2022-11-28T00:39:13.558Z,3.30
2022-11-28T00:41:41.838Z,3.28
2022-11-28T00:44:11.778Z,3.26
2022-11-28T00:46:40.341Z,3.24
2022-11-28T00:49:08.706Z,3.23
2022-11-28T00:51:36.896Z,3.20
2022-11-28T00:54:06.559Z,3.20
2022-11-28T00:56:38.138Z,3.18
2022-11-28T00:59:07.319Z,3.17
2022-11-28T01:01:41.859Z,3.16
2022-11-28T01:04:12.903Z,3.16
2022-11-28T01:06:49.793Z,3.15
2022-11-28T01:09:22.895Z,3.14
2022-11-28T01:11:53.566Z,3.15
2022-11-28T01:14:24.204Z,3.15
2022-11-28T01:16:52.547Z,3.14
2022-11-28T01:19:21.344Z,3.12
2022-11-28T01:21:49.573Z,3.10
2022-11-28T01:24:18.273Z,3.08
2022-11-28T01:26:46.496Z,3.06
2022-11-28T01:29:15.000Z,3.05
2022-11-28T01:31:43.198Z,3.03
2022-11-28T01:34:11.310Z,2.99
2022-11-28T01:36:39.461Z,2.98
2022-11-28T01:39:07.806Z,2.98
2022-11-28T01:41:35.918Z,2.97
2022-11-28T01:44:27.060Z,2.96
2022-11-28T01:46:55.388Z,2.98
2022-11-28T01:49:31.835Z,2.98
2022-11-28T01:52:13.155Z,2.95
2022-11-28T01:54:44.220Z,2.94
2022-11-28T01:57:17.550Z,2.94
2022-11-28T02:00:04.609Z,2.95
2022-11-28T02:03:09.342Z,2.98
2022-11-28T02:05:38.620Z,3.00
2022-11-28T02:08:10.199Z,3.00
2022-11-28T02:10:53.537Z,3.00
2022-11-28T02:13:39.909Z,3.01
2022-11-28T02:16:11.217Z,3.00
2022-11-28T02:19:28.694Z,2.98
2022-11-28T02:22:23.918Z,2.90
2022-11-28T02:25:12.687Z,2.91
2022-11-28T02:28:00.461Z,2.92
2022-11-28T02:30:34.251Z,2.94
2022-11-28T02:33:38.515Z,2.94
2022-11-28T02:36:36.513Z,2.97
2022-11-28T02:39:27.874Z,2.99
2022-11-28T02:42:28.908Z,2.98
2022-11-28T02:45:04.979Z,2.96
2022-11-28T02:47:36.614Z,2.94
2022-11-28T02:50:15.724Z,2.89
2022-11-28T02:52:49.176Z,2.86
2022-11-28T02:55:18.390Z,2.85
2022-11-28T02:57:52.127Z,2.85
2022-11-28T03:00:32.617Z,2.83
2022-11-28T03:03:10.033Z,2.78
2022-11-28T03:06:02.762Z,2.76
2022-11-28T03:08:46.163Z,2.77
2022-11-28T03:11:34.305Z,2.76
2022-11-28T03:14:12.561Z,2.75
2022-11-28T03:16:56.320Z,2.76
2022-11-28T03:19:45.585Z,2.78
2022-11-28T03:22:20.786Z,2.77
2022-11-28T03:25:09.285Z,2.79
2022-11-28T03:28:12.567Z,2.81
2022-11-28T03:30:53.494Z,2.82
2022-11-28T03:33:32.587Z,2.83
2022-11-28T03:36:19.875Z,2.81
2022-11-28T03:39:01.299Z,2.81
2022-11-28T03:41:55.750Z,2.81
2022-11-28T03:44:28.821Z,2.80
2022-11-28T03:47:00.740Z,2.80
2022-11-28T03:49:53.212Z,2.80
2022-11-28T03:52:28.017Z,2.80
2022-11-28T03:55:02.208Z,2.81
2022-11-28T03:57:46.301Z,2.81
2022-11-28T04:00:15.299Z,2.81
2022-11-28T04:03:04.508Z,2.80
2022-11-28T04:05:42.326Z,2.82
2022-11-28T04:08:10.481Z,2.83
2022-11-28T04:10:45.474Z,2.82
2022-11-28T04:13:22.876Z,2.81
2022-11-28T04:16:12.291Z,2.82
2022-11-28T04:18:51.261Z,2.83
2022-11-28T04:21:43.955Z,2.81
2022-11-28T04:24:18.344Z,2.81
2022-11-28T04:26:51.879Z,2.81
2022-11-28T04:29:23.664Z,2.81
2022-11-28T04:31:56.167Z,2.80
2022-11-28T04:34:26.795Z,2.80
2022-11-28T04:36:58.266Z,2.79
2022-11-28T04:39:28.952Z,2.79
2022-11-28T04:42:12.150Z,2.78
2022-11-28T04:44:58.540Z,2.78
2022-11-28T04:47:27.076Z,2.79
2022-11-28T04:49:55.442Z,2.78
2022-11-28T04:52:39.282Z,2.78
2022-11-28T04:55:20.096Z,2.77
2022-11-28T04:58:09.265Z,2.76
2022-11-28T05:00:39.187Z,2.75
2022-11-28T05:03:08.276Z,2.74
2022-11-28T05:05:50.945Z,2.72
2022-11-28T05:08:19.977Z,2.69
2022-11-28T05:10:48.503Z,2.68
2022-11-28T05:13:17.089Z,2.67
2022-11-28T05:15:45.140Z,2.66
2022-11-28T05:18:13.207Z,2.66
2022-11-28T05:20:41.641Z,2.65
2022-11-28T05:23:09.827Z,2.66
2022-11-28T05:25:40.073Z,2.65
2022-11-28T05:28:09.104Z,2.65
2022-11-28T05:30:37.107Z,2.65
2022-11-28T05:33:05.228Z,2.65
2022-11-28T05:35:33.311Z,2.64
2022-11-28T05:38:01.365Z,2.61
2022-11-28T05:40:29.426Z,2.58
2022-11-28T05:42:57.508Z,2.56
2022-11-28T05:45:25.642Z,2.56
2022-11-28T05:47:53.708Z,2.57
2022-11-28T05:50:21.798Z,2.57
2022-11-28T05:52:49.889Z,2.58
2022-11-28T05:55:17.989Z,2.59
2022-11-28T05:57:46.103Z,2.60
2022-11-28T06:00:14.707Z,2.60
2022-11-28T06:02:43.278Z,2.60
2022-11-28T06:05:35.098Z,2.59
2022-11-28T06:07:59.546Z,2.60
2022-11-28T06:10:27.610Z,2.59
2022-11-28T06:12:55.918Z,2.58
2022-11-28T06:15:24.250Z,2.57
2022-11-28T06:17:52.283Z,2.56
2022-11-28T06:20:20.288Z,2.56
2022-11-28T06:22:48.326Z,2.55
2022-11-28T06:25:16.460Z,2.55
2022-11-28T06:27:44.519Z,2.56
2022-11-28T06:30:12.899Z,2.57
2022-11-28T06:32:40.953Z,2.59
2022-11-28T06:35:09.776Z,2.62
2022-11-28T06:37:38.036Z,2.66
2022-11-28T06:40:06.708Z,2.70
2022-11-28T06:42:38.260Z,2.74
2022-11-28T06:45:07.115Z,2.78
2022-11-28T06:47:35.753Z,2.83
2022-11-28T06:50:04.255Z,2.87
2022-11-28T06:52:32.408Z,2.90
2022-11-28T06:55:00.610Z,2.94
2022-11-28T06:57:28.874Z,2.98
2022-11-28T06:59:56.934Z,3.03
2022-11-28T07:02:27.714Z,3.07
2022-11-28T07:04:55.953Z,3.12
2022-11-28T07:07:24.051Z,3.17
2022-11-28T07:09:52.348Z,3.23
2022-11-28T07:12:20.459Z,3.28
2022-11-28T07:14:48.647Z,3.33
2022-11-28T07:17:17.377Z,3.40
2022-11-28T07:19:49.249Z,3.47
2022-11-28T07:22:20.364Z,3.54
2022-11-28T07:24:48.653Z,3.61
2022-11-28T07:27:16.824Z,3.68
2022-11-28T07:29:45.172Z,3.73
2022-11-28T07:32:13.844Z,3.81
2022-11-28T07:34:44.665Z,3.88
2022-11-28T07:37:16.251Z,3.96
2022-11-28T07:39:44.743Z,4.02
2022-11-28T07:42:14.015Z,4.08
2022-11-28T07:44:44.364Z,4.15
2022-11-28T07:47:12.577Z,4.23
2022-11-28T07:49:41.002Z,4.30
2022-11-28T07:52:09.374Z,4.36
2022-11-28T07:54:37.676Z,4.45
2022-11-28T07:57:13.551Z,4.54
2022-11-28T07:59:42.326Z,4.64
2022-11-28T08:02:12.220Z,4.74
2022-11-28T08:04:45.929Z,4.82
2022-11-28T08:07:17.123Z,4.92
2022-11-28T08:09:45.950Z,5.00
2022-11-28T08:12:14.136Z,5.05
2022-11-28T08:14:42.672Z,5.16
2022-11-28T08:17:11.031Z,5.24
2022-11-28T08:19:39.112Z,5.32
2022-11-28T08:22:09.389Z,5.40
2022-11-28T08:24:37.702Z,5.48
2022-11-28T08:27:06.315Z,5.56
2022-11-28T08:29:34.659Z,5.63
2022-11-28T08:32:03.415Z,5.66
2022-11-28T08:34:31.558Z,5.71
2022-11-28T08:36:59.886Z,5.75
2022-11-28T08:39:28.326Z,5.81
2022-11-28T08:41:59.852Z,5.84
2022-11-28T08:44:30.252Z,5.92
2022-11-28T08:46:58.837Z,5.97
2022-11-28T08:49:26.952Z,5.99
2022-11-28T08:51:55.074Z,6.03
2022-11-28T08:54:23.176Z,6.09
2022-11-28T08:56:51.411Z,6.14
2022-11-28T08:59:19.669Z,6.17
2022-11-28T09:01:47.797Z,6.21
2022-11-28T09:04:16.051Z,6.19
2022-11-28T09:06:44.250Z,6.19
2022-11-28T09:09:12.723Z,6.15
2022-11-28T09:11:41.477Z,6.13
2022-11-28T09:14:09.569Z,6.11
2022-11-28T09:16:39.547Z,6.12
2022-11-28T09:19:09.391Z,6.11
2022-11-28T09:21:38.279Z,6.11
2022-11-28T09:24:07.050Z,6.10
2022-11-28T09:26:35.826Z,6.13
2022-11-28T09:29:05.472Z,6.17
2022-11-28T09:31:33.777Z,6.18
2022-11-28T09:34:04.017Z,6.20
2022-11-28T09:36:32.719Z,6.21
2022-11-28T09:39:03.994Z,6.24
2022-11-28T09:41:38.239Z,6.25
2022-11-28T09:44:22.744Z,6.29
2022-11-28T09:46:56.097Z,6.33
2022-11-28T09:49:52.662Z,6.35
2022-11-28T09:52:39.780Z,6.36
2022-11-28T09:55:36.589Z,6.37
2022-11-28T09:58:39.654Z,6.40
2022-11-28T10:01:11.261Z,6.40
2022-11-28T10:03:46.466Z,6.42
2022-11-28T10:06:51.770Z,6.41
2022-11-28T10:09:26.633Z,6.44
2022-11-28T10:12:08.437Z,6.50
2022-11-28T10:14:55.093Z,6.51
2022-11-28T10:17:23.169Z,6.52
2022-11-28T10:20:06.493Z,6.51
2022-11-28T10:22:48.683Z,6.52
2022-11-28T10:25:21.416Z,6.53
2022-11-28T10:27:50.582Z,6.61
2022-11-28T10:30:23.405Z,6.71
2022-11-28T10:33:01.342Z,6.85
2022-11-28T10:35:43.921Z,6.97
2022-11-28T10:38:16.872Z,7.15
2022-11-28T10:40:54.239Z,7.26
2022-11-28T10:43:30.396Z,7.44
2022-11-28T10:46:10.891Z,7.57
2022-11-28T10:48:52.825Z,7.66
2022-11-28T10:51:32.837Z,7.77
2022-11-28T10:54:07.066Z,7.87
2022-11-28T10:56:44.287Z,7.90
2022-11-28T10:59:51.032Z,7.97
2022-11-28T11:02:52.166Z,8.07
2022-11-28T11:05:29.083Z,8.23
2022-11-28T11:08:09.392Z,8.39
2022-11-28T11:11:20.948Z,8.53
2022-11-28T11:14:08.924Z,8.75
2022-11-28T11:16:52.671Z,8.98
2022-11-28T11:19:25.108Z,9.25
2022-11-28T11:22:21.041Z,9.40
2022-11-28T11:25:15.653Z,9.57
2022-11-28T11:27:52.709Z,9.70
2022-11-28T11:30:29.348Z,9.79
2022-11-28T11:32:59.799Z,9.87
2022-11-28T11:35:33.658Z,9.93
2022-11-28T11:38:18.237Z,9.97
2022-11-28T11:40:47.040Z,9.95
2022-11-28T11:43:33.215Z,9.93
2022-11-28T11:46:13.347Z,9.82
2022-11-28T11:48:41.447Z,9.71
2022-11-28T11:51:35.227Z,9.61
2022-11-28T11:54:13.359Z,9.53
2022-11-28T11:56:45.747Z,9.47
2022-11-28T11:59:21.366Z,9.40
2022-11-28T12:01:55.580Z,9.33
2022-11-28T12:04:45.023Z,9.23
2022-11-28T12:07:43.046Z,9.15
2022-11-28T12:10:14.406Z,9.07
2022-11-28T12:12:42.868Z,8.95
2022-11-28T12:15:41.017Z,8.87
2022-11-28T12:18:21.730Z,8.80
2022-11-28T12:21:05.157Z,8.77
2022-11-28T12:23:39.337Z,8.72
2022-11-28T12:26:27.610Z,8.66
2022-11-28T12:29:23.699Z,8.53
2022-11-28T12:32:10.190Z,8.44
2022-11-28T12:34:38.281Z,8.32
2022-11-28T12:37:15.344Z,8.26
2022-11-28T12:39:47.164Z,8.20
2022-11-28T12:42:32.190Z,8.13
2022-11-28T12:45:12.607Z,8.00
2022-11-28T12:48:08.446Z,7.94
2022-11-28T12:50:44.174Z,7.88
2022-11-28T12:53:36.791Z,7.82
2022-11-28T12:56:21.182Z,7.76
2022-11-28T12:59:01.131Z,7.70
2022-11-28T13:02:02.120Z,7.64
2022-11-28T13:05:04.044Z,7.57
2022-11-28T13:07:54.307Z,7.51
2022-11-28T13:10:26.243Z,7.45
2022-11-28T13:13:03.990Z,7.38
2022-11-28T13:15:31.918Z,7.32
2022-11-28T13:18:28.788Z,7.28
2022-11-28T13:21:22.846Z,7.24
2022-11-28T13:24:36.080Z,7.20
2022-11-28T13:27:09.871Z,7.16
2022-11-28T13:30:01.695Z,7.10
2022-11-28T13:32:59.952Z,7.05
2022-11-28T13:35:29.611Z,6.99
2022-11-28T13:38:36.984Z,6.92
2022-11-28T13:41:43.176Z,6.87
2022-11-28T13:44:19.136Z,6.79
2022-11-28T13:46:47.517Z,6.69
2022-11-28T13:49:21.310Z,6.66
2022-11-28T13:52:09.702Z,6.59
2022-11-28T13:54:43.657Z,6.54
2022-11-28T13:57:32.472Z,6.49
2022-11-28T14:00:20.530Z,6.46
2022-11-28T14:02:53.249Z,6.42
2022-11-28T14:05:41.606Z,6.38
2022-11-28T14:08:30.059Z,6.33
2022-11-28T14:11:27.588Z,6.28
2022-11-28T14:14:21.236Z,6.24
2022-11-28T14:16:55.611Z,6.20
2022-11-28T14:19:53.922Z,6.15
2022-11-28T14:23:00.085Z,6.07
2022-11-28T14:25:32.507Z,5.97
2022-11-28T14:28:06.928Z,5.90
2022-11-28T14:30:40.969Z,5.83
2022-11-28T14:33:23.158Z,5.77
2022-11-28T14:35:54.014Z,5.70
2022-11-28T14:38:31.392Z,5.64
2022-11-28T14:41:06.766Z,5.55
2022-11-28T14:43:44.865Z,5.49
2022-11-28T14:46:16.329Z,5.43
2022-11-28T14:49:00.208Z,5.37
2022-11-28T14:51:44.288Z,5.32
2022-11-28T14:54:35.605Z,5.26
2022-11-28T14:57:33.114Z,5.21
2022-11-28T15:00:16.690Z,5.14
2022-11-28T15:02:56.972Z,5.09
2022-11-28T15:05:37.894Z,5.04
2022-11-28T15:08:32.906Z,5.00
2022-11-28T15:11:06.021Z,4.96
2022-11-28T15:13:49.048Z,4.93
2022-11-28T15:16:20.304Z,4.89
2022-11-28T15:18:54.147Z,4.86
2022-11-28T15:21:23.083Z,4.83
2022-11-28T15:23:53.053Z,4.81
2022-11-28T15:26:29.655Z,4.77
2022-11-28T15:29:19.949Z,4.74
2022-11-28T15:31:51.890Z,4.71
2022-11-28T15:34:32.110Z,4.68
2022-11-28T15:37:02.456Z,4.64
2022-11-28T15:39:40.125Z,4.63
2022-11-28T15:42:20.871Z,4.58
2022-11-28T15:44:59.973Z,4.56
2022-11-28T15:47:29.020Z,4.53
2022-11-28T15:50:21.406Z,4.51
2022-11-28T15:52:58.224Z,4.50
2022-11-28T15:55:32.605Z,4.51
2022-11-28T15:58:19.932Z,4.48
2022-11-28T16:01:11.859Z,4.46
2022-11-28T16:03:52.481Z,4.47
2022-11-28T16:06:23.925Z,4.45
2022-11-28T16:08:53.006Z,4.43
2022-11-28T16:11:24.370Z,4.41
2022-11-28T16:13:58.909Z,4.40
2022-11-28T16:16:33.277Z,4.40
2022-11-28T16:19:06.185Z,4.39
2022-11-28T16:21:58.092Z,4.38
2022-11-28T16:24:31.213Z,4.40
2022-11-28T16:27:07.876Z,4.41
2022-11-28T16:29:36.823Z,4.39
2022-11-28T16:32:26.037Z,4.38
2022-11-28T16:34:56.251Z,4.37
2022-11-28T16:37:43.682Z,4.37
2022-11-28T16:40:20.233Z,4.35
2022-11-28T16:42:56.959Z,4.34
2022-11-28T16:45:36.712Z,4.32
2022-11-28T16:48:19.327Z,4.32
2022-11-28T16:51:10.503Z,4.29
2022-11-28T16:53:49.056Z,4.25
2022-11-28T16:56:24.824Z,4.20
2022-11-28T16:59:18.250Z,4.12
2022-11-28T17:01:49.341Z,4.03
2022-11-28T17:04:22.845Z,3.95
2022-11-28T17:06:54.817Z,3.87
2022-11-28T17:09:23.852Z,3.78
2022-11-28T17:11:57.419Z,3.70
2022-11-28T17:14:25.731Z,3.62
2022-11-28T17:16:55.419Z,3.56
2022-11-28T17:19:29.797Z,3.51
2022-11-28T17:21:59.676Z,3.49
2022-11-28T17:24:34.618Z,3.47
2022-11-28T17:27:03.984Z,3.47
2022-11-28T17:29:32.176Z,3.48
2022-11-28T17:32:02.315Z,3.47
2022-11-28T17:34:33.393Z,3.47
2022-11-28T17:37:03.078Z,3.47
2022-11-28T17:39:31.656Z,3.46
2022-11-28T17:42:01.519Z,3.47
2022-11-28T17:44:37.953Z,3.48
2022-11-28T17:47:06.585Z,3.49
2022-11-28T17:49:35.723Z,3.51
2022-11-28T17:52:05.026Z,3.52
2022-11-28T17:54:35.124Z,3.57
2022-11-28T17:57:03.839Z,3.60
2022-11-28T17:59:34.520Z,3.63
2022-11-28T18:02:02.625Z,3.65
2022-11-28T18:04:34.413Z,3.66
2022-11-28T18:07:04.739Z,3.67
2022-11-28T18:09:33.205Z,3.68
2022-11-28T18:12:01.972Z,3.68
2022-11-28T18:14:35.200Z,3.68
2022-11-28T18:17:08.791Z,3.68
2022-11-28T18:19:37.001Z,3.69
2022-11-28T18:22:08.776Z,3.71
2022-11-28T18:24:40.139Z,3.70
2022-11-28T18:27:09.219Z,3.69
2022-11-28T18:29:37.869Z,3.70
2022-11-28T18:32:07.383Z,3.69
2022-11-28T18:34:35.625Z,3.69
2022-11-28T18:37:05.220Z,3.72
2022-11-28T18:39:35.364Z,3.72
2022-11-28T18:42:06.996Z,3.74
2022-11-28T18:44:35.881Z,3.74
2022-11-28T18:47:08.529Z,3.75
2022-11-28T18:49:56.875Z,3.76
2022-11-28T18:52:25.496Z,3.80
2022-11-28T18:54:53.901Z,3.79
2022-11-28T18:57:30.813Z,3.79
2022-11-28T19:00:01.275Z,3.79
2022-11-28T19:02:35.011Z,3.77
2022-11-28T19:05:05.893Z,3.75
2022-11-28T19:07:34.887Z,3.74
2022-11-28T19:10:03.624Z,3.72
2022-11-28T19:12:33.079Z,3.70
2022-11-28T19:15:02.999Z,3.69
2022-11-28T19:17:35.761Z,3.68
2022-11-28T19:20:04.760Z,3.67
2022-11-28T19:22:36.388Z,3.66
2022-11-28T19:25:05.276Z,3.64
2022-11-28T19:27:33.546Z,3.62
2022-11-28T19:30:06.779Z,3.60
2022-11-28T19:32:36.446Z,3.58
2022-11-28T19:35:05.060Z,3.56
2022-11-28T19:37:33.440Z,3.55
2022-11-28T19:40:03.030Z,3.51
2022-11-28T19:42:32.634Z,3.50
2022-11-28T19:45:00.986Z,3.48
2022-11-28T19:47:29.217Z,3.46
2022-11-28T19:49:57.376Z,3.44
2022-11-28T19:52:25.551Z,3.42
2022-11-28T19:54:55.179Z,3.40
2022-11-28T19:57:24.208Z,3.37
2022-11-28T19:59:53.588Z,3.32
2022-11-28T20:02:23.516Z,3.28
2022-11-28T20:04:52.450Z,3.24
2022-11-28T20:07:21.594Z,3.20
2022-11-28T20:09:49.868Z,3.21
2022-11-28T20:12:19.692Z,3.23
2022-11-28T20:14:48.608Z,3.23
2022-11-28T20:17:17.206Z,3.21
2022-11-28T20:19:46.028Z,3.18
2022-11-28T20:22:14.427Z,3.15
2022-11-28T20:24:42.911Z,3.13
2022-11-28T20:27:11.078Z,3.09
2022-11-28T20:29:39.270Z,3.05
2022-11-28T20:32:07.636Z,3.01
2022-11-28T20:34:35.752Z,2.96
2022-11-28T20:37:03.965Z,2.92
2022-11-28T20:39:32.616Z,2.87
2022-11-28T20:42:01.566Z,2.84
2022-11-28T20:44:29.749Z,2.83
2022-11-28T20:46:58.763Z,2.80
2022-11-28T20:49:26.830Z,2.79
2022-11-28T20:51:54.996Z,2.76
2022-11-28T20:54:23.259Z,2.71
2022-11-28T20:57:19.805Z,2.66
2022-11-28T20:59:40.404Z,2.61
2022-11-28T21:02:11.683Z,2.56
2022-11-28T21:04:39.777Z,2.51
2022-11-28T21:07:07.749Z,2.46
2022-11-28T21:09:35.807Z,2.42
2022-11-28T21:12:04.102Z,2.40
2022-11-28T21:14:32.264Z,2.37
2022-11-28T21:17:01.425Z,2.33
2022-11-28T21:19:29.992Z,2.29
2022-11-28T21:21:58.167Z,2.25
2022-11-28T21:24:26.344Z,2.19
2022-11-28T21:26:56.991Z,2.14
2022-11-28T21:29:25.162Z,2.08
2022-11-28T21:31:54.119Z,2.02
2022-11-28T21:34:22.906Z,1.96
2022-11-28T21:36:51.319Z,1.89
2022-11-28T21:39:22.159Z,1.83
2022-11-28T21:41:51.198Z,1.80
2022-11-28T21:44:20.461Z,1.78
2022-11-28T21:46:50.252Z,1.76
2022-11-28T21:49:18.699Z,1.72
2022-11-28T21:51:46.878Z,1.69
2022-11-28T21:54:15.606Z,1.65
2022-11-28T21:56:46.112Z,1.63
2022-11-28T21:59:14.397Z,1.61
2022-11-28T22:01:42.618Z,1.57
2022-11-28T22:04:11.134Z,1.52
2022-11-28T22:06:40.004Z,1.47
2022-11-28T22:09:09.962Z,1.45
2022-11-28T22:11:41.525Z,1.42
2022-11-28T22:14:11.028Z,1.38
2022-11-28T22:16:39.343Z,1.34
2022-11-28T22:19:07.548Z,1.30
2022-11-28T22:21:53.928Z,1.27
2022-11-28T22:24:24.143Z,1.25
2022-11-28T22:26:53.026Z,1.20
2022-11-28T22:29:20.997Z,1.15
2022-11-28T22:31:50.237Z,1.11
2022-11-28T22:34:19.519Z,1.06
2022-11-28T22:36:47.627Z,1.02
2022-11-28T22:39:15.712Z,0.97
2022-11-28T22:41:43.859Z,0.92
2022-11-28T22:44:12.166Z,0.88
2022-11-28T22:46:41.056Z,0.84
2022-11-28T22:49:11.516Z,0.81
2022-11-28T22:51:40.276Z,0.79
2022-11-28T22:54:12.370Z,0.77
2022-11-28T22:56:42.008Z,0.76
2022-11-28T22:59:13.077Z,0.74
2022-11-28T23:01:43.705Z,0.71
2022-11-28T23:04:13.214Z,0.68
2022-11-28T23:06:41.210Z,0.65
2022-11-28T23:09:13.261Z,0.61
2022-11-28T23:11:42.171Z,0.58
2022-11-28T23:14:15.208Z,0.54
2022-11-28T23:16:45.154Z,0.50
2022-11-28T23:19:17.060Z,0.46
2022-11-28T23:21:48.473Z,0.42
2022-11-28T23:24:19.670Z,0.38
2022-11-28T23:26:49.472Z,0.34
2022-11-28T23:29:19.066Z,0.30
2022-11-28T23:31:47.836Z,0.28
2022-11-28T23:34:16.435Z,0.22
2022-11-28T23:36:46.769Z,0.18
2022-11-28T23:39:20.169Z,0.16
2022-11-28T23:41:52.646Z,0.12
2022-11-28T23:44:20.938Z,0.08
2022-11-28T23:46:48.977Z,0.06
2022-11-28T23:49:17.544Z,0.04
2022-11-28T23:51:45.924Z,0.01
2022-11-28T23:54:14.438Z,-0.03
2022-11-28T23:56:43.315Z,-0.07
2022-11-28T23:59:12.851Z,-0.10
